createdAt,value
2023-01-20T00:04:39.457Z,76.37
2023-01-20T00:14:44.014Z,81.30
2023-01-20T00:19:46.397Z,74.37
2023-01-20T00:24:48.764Z,80.75
2023-01-20T00:29:51.204Z,75.63
2023-01-20T00:34:53.677Z,64.03
2023-01-20T00:39:57.434Z,70.00
2023-01-20T00:44:59.790Z,91.95
2023-01-20T00:50:03.453Z,82.20
2023-01-20T00:55:06.383Z,64.20
2023-01-20T01:00:09.377Z,76.10
2023-01-20T01:05:13.177Z,81.43
2023-01-20T01:10:15.964Z,73.37
2023-01-20T01:15:18.598Z,54.80
2023-01-20T01:20:21.232Z,67.60
2023-01-20T01:25:23.808Z,60.43
2023-01-20T01:30:26.422Z,78.22
2023-01-20T01:35:28.922Z,66.33
2023-01-20T01:40:35.246Z,75.32
2023-01-20T01:45:38.686Z,72.40
2023-01-20T01:50:50.140Z,74.60
2023-01-20T01:55:57.163Z,72.82
2023-01-20T02:00:59.719Z,65.35
2023-01-20T02:06:02.606Z,50.50
2023-01-20T02:11:05.430Z,63.30
2023-01-20T02:16:14.559Z,64.80
2023-01-20T02:21:37.373Z,64.85
2023-01-20T02:27:09.153Z,47.93
2023-01-20T02:32:30.098Z,73.88
2023-01-20T02:37:52.072Z,64.00
2023-01-20T02:43:11.202Z,64.57
2023-01-20T02:49:02.745Z,75.07
2023-01-20T02:54:07.576Z,62.40
2023-01-20T02:59:12.592Z,69.63
2023-01-20T03:04:18.240Z,62.95
2023-01-20T03:09:23.931Z,68.05
2023-01-20T03:14:27.558Z,68.72
2023-01-20T03:19:31.088Z,56.90
2023-01-20T03:24:33.661Z,83.03
2023-01-20T03:29:36.159Z,67.13
2023-01-20T03:34:40.103Z,71.90
2023-01-20T03:39:42.544Z,79.40
2023-01-20T03:45:00.176Z,70.78
2023-01-20T03:50:17.590Z,67.43
2023-01-20T03:55:34.495Z,71.45
2023-01-20T04:00:40.715Z,67.28
2023-01-20T04:05:44.666Z,68.25
2023-01-20T04:10:48.700Z,68.38
2023-01-20T04:15:51.233Z,74.63
2023-01-20T04:20:58.187Z,79.83
2023-01-20T04:26:00.524Z,90.90
2023-01-20T04:31:02.955Z,70.15
2023-01-20T04:36:05.472Z,63.72
2023-01-20T04:41:11.379Z,62.22
2023-01-20T04:46:15.080Z,62.03
2023-01-20T04:51:17.702Z,59.08
2023-01-20T04:56:20.110Z,58.13
2023-01-20T05:01:22.679Z,62.90
2023-01-20T05:06:25.108Z,59.43
2023-01-20T05:11:27.559Z,73.70
2023-01-20T05:16:32.176Z,67.10
2023-01-20T05:21:34.551Z,61.65
2023-01-20T05:26:37.167Z,60.70
2023-01-20T05:31:43.613Z,60.95
2023-01-20T05:36:46.256Z,59.65
2023-01-20T05:41:49.444Z,59.75
2023-01-20T05:46:51.961Z,60.72
2023-01-20T05:51:54.284Z,61.65
2023-01-20T05:56:56.685Z,68.47
2023-01-20T06:01:59.089Z,61.42
2023-01-20T06:07:01.419Z,56.97
2023-01-20T06:12:04.169Z,61.53
2023-01-20T06:17:06.507Z,52.00
2023-01-20T06:22:32.402Z,68.30
2023-01-20T06:27:34.825Z,69.35
2023-01-20T06:32:37.413Z,77.65
2023-01-20T06:37:39.807Z,84.10
2023-01-20T06:42:42.197Z,89.28
2023-01-20T06:47:48.811Z,83.85
2023-01-20T06:52:53.619Z,100.22
2023-01-20T06:57:55.982Z,100.68
2023-01-20T07:02:58.301Z,82.90
2023-01-20T07:08:00.721Z,88.55
2023-01-20T07:13:03.091Z,123.57
2023-01-20T07:18:05.387Z,139.27
2023-01-20T07:23:07.973Z,147.23
2023-01-20T07:28:10.266Z,116.90
2023-01-20T07:33:12.563Z,126.50
2023-01-20T07:38:15.015Z,107.53
2023-01-20T07:43:17.649Z,132.25
2023-01-20T07:48:20.223Z,101.40
2023-01-20T07:53:25.026Z,119.93
2023-01-20T07:58:28.644Z,183.88
2023-01-20T08:08:33.655Z,205.25
2023-01-20T08:13:36.344Z,158.93
2023-01-20T08:18:39.560Z,148.37
2023-01-20T08:23:42.101Z,158.60
2023-01-20T08:28:44.431Z,136.05
2023-01-20T08:33:47.785Z,124.35
2023-01-20T08:38:50.518Z,112.97
2023-01-20T08:43:53.047Z,139.98
2023-01-20T08:48:56.288Z,101.50
2023-01-20T08:54:00.339Z,128.93
2023-01-20T08:59:02.990Z,141.85
2023-01-20T09:04:07.261Z,167.45
2023-01-20T09:09:10.424Z,110.75
2023-01-20T09:14:12.837Z,107.30
2023-01-20T09:19:15.650Z,105.17
2023-01-20T09:24:18.437Z,89.53
2023-01-20T09:29:21.255Z,110.33
2023-01-20T09:34:25.550Z,115.83
2023-01-20T09:39:46.761Z,106.95
2023-01-20T09:44:54.905Z,131.63
2023-01-20T09:50:37.662Z,113.72
2023-01-20T09:55:49.244Z,117.97
2023-01-20T10:01:30.933Z,132.23
2023-01-20T10:06:42.983Z,139.40
2023-01-20T10:11:47.349Z,157.48
2023-01-20T10:16:51.315Z,124.47
2023-01-20T10:22:27.354Z,158.25
2023-01-20T10:27:32.268Z,155.20
2023-01-20T10:32:37.194Z,140.35
2023-01-20T10:37:39.855Z,121.93
2023-01-20T10:42:47.456Z,126.32
2023-01-20T10:48:00.453Z,126.22
2023-01-20T10:53:29.430Z,138.35
2023-01-20T10:58:33.888Z,107.45
2023-01-20T11:03:40.137Z,121.35
2023-01-20T11:08:44.344Z,103.13
2023-01-20T11:13:47.308Z,124.72
2023-01-20T11:19:02.180Z,97.30
2023-01-20T11:24:36.413Z,104.13
2023-01-20T11:34:49.290Z,126.50
2023-01-20T11:39:51.685Z,111.70
2023-01-20T11:45:15.207Z,85.88
2023-01-20T11:50:28.513Z,73.25
2023-01-20T11:55:30.851Z,92.03
2023-01-20T12:00:53.519Z,87.97
2023-01-20T12:05:58.148Z,94.82
2023-01-20T12:11:04.389Z,80.55
2023-01-20T12:16:07.280Z,77.22
2023-01-20T12:21:18.393Z,43.38
2023-01-20T12:26:22.589Z,101.57
2023-01-20T12:31:25.388Z,89.50
2023-01-20T12:36:39.807Z,63.40
2023-01-20T12:41:54.414Z,65.97
2023-01-20T12:47:22.714Z,61.35
2023-01-20T12:52:31.180Z,70.03
2023-01-20T12:57:43.449Z,168.35
2023-01-20T13:03:09.042Z,108.72
2023-01-20T13:08:17.987Z,55.35
2023-01-20T13:13:30.254Z,84.55
2023-01-20T13:18:40.204Z,88.43
2023-01-20T13:23:44.659Z,117.72
2023-01-20T13:28:51.931Z,168.23
2023-01-20T13:33:54.379Z,145.25
2023-01-20T13:39:32.936Z,70.22
2023-01-20T13:44:42.185Z,84.30
2023-01-20T13:49:48.908Z,349.52
2023-01-20T13:54:51.320Z,280.50
2023-01-20T13:59:54.720Z,195.35
2023-01-20T14:04:58.919Z,86.53
2023-01-20T14:10:02.038Z,73.55
2023-01-20T14:15:04.674Z,60.72
2023-01-20T14:20:23.701Z,143.37
2023-01-20T14:25:27.103Z,180.90
2023-01-20T14:30:29.828Z,596.67
2023-01-20T14:35:33.995Z,439.15
2023-01-20T14:40:36.498Z,196.93
2023-01-20T14:45:43.511Z,180.75
2023-01-20T14:50:50.841Z,111.13
2023-01-20T14:56:01.359Z,114.20
2023-01-20T15:01:17.881Z,88.00
2023-01-20T15:06:22.364Z,84.22
2023-01-20T15:11:29.153Z,88.13
2023-01-20T15:16:38.720Z,121.57
2023-01-20T15:21:43.448Z,88.68
2023-01-20T15:26:47.122Z,192.27
2023-01-20T15:31:51.319Z,252.65
2023-01-20T15:36:54.951Z,365.80
2023-01-20T15:41:57.911Z,307.38
2023-01-20T15:47:01.051Z,141.05
2023-01-20T15:52:03.528Z,172.75
2023-01-20T15:57:16.356Z,163.97
2023-01-20T16:02:23.476Z,153.52
2023-01-20T16:07:29.154Z,93.78
2023-01-20T16:12:32.138Z,88.72
2023-01-20T16:17:34.679Z,66.38
2023-01-20T16:22:37.264Z,64.70
2023-01-20T16:27:39.590Z,86.97
2023-01-20T16:32:46.232Z,109.13
2023-01-20T16:37:48.686Z,83.10
2023-01-20T16:42:54.691Z,106.70
2023-01-20T16:47:57.413Z,95.22
2023-01-20T16:52:59.818Z,99.73
2023-01-20T16:58:02.360Z,97.28
2023-01-20T17:03:05.048Z,97.85
2023-01-20T17:08:07.647Z,79.72
2023-01-20T17:13:10.111Z,96.43
2023-01-20T17:18:12.758Z,93.53
2023-01-20T17:23:15.067Z,93.97
2023-01-20T17:28:38.288Z,87.68
2023-01-20T17:33:49.008Z,189.50
2023-01-20T17:38:51.953Z,81.47
2023-01-20T17:44:15.561Z,68.32
2023-01-20T17:49:20.252Z,112.03
2023-01-20T17:54:22.560Z,82.07
2023-01-20T17:59:27.149Z,71.25
2023-01-20T18:04:38.670Z,60.85
2023-01-20T18:15:07.140Z,66.43
2023-01-20T18:20:11.175Z,66.05
2023-01-20T18:25:14.647Z,81.00
2023-01-20T18:30:48.256Z,110.05
2023-01-20T18:37:15.363Z,128.10
2023-01-20T18:42:40.705Z,74.53
2023-01-20T18:48:11.895Z,74.30
2023-01-20T18:53:15.691Z,96.53
2023-01-20T18:58:18.632Z,88.10
2023-01-20T19:03:24.362Z,78.63
2023-01-20T19:08:27.203Z,54.05
2023-01-20T19:13:29.842Z,60.75
2023-01-20T19:18:32.211Z,89.10
2023-01-20T19:23:35.116Z,73.47
2023-01-20T19:33:41.001Z,55.88
2023-01-20T19:38:44.339Z,65.57
2023-01-20T19:43:47.728Z,70.18
2023-01-20T19:48:52.501Z,51.63
2023-01-20T19:53:58.190Z,73.45
2023-01-20T19:59:01.163Z,62.65
2023-01-20T20:04:05.923Z,44.22
2023-01-20T20:09:12.217Z,60.08
2023-01-20T20:14:16.659Z,65.18
2023-01-20T20:19:20.089Z,62.50
2023-01-20T20:24:22.790Z,57.05
2023-01-20T20:29:25.175Z,85.32
2023-01-20T20:34:27.492Z,56.90
2023-01-20T20:39:46.351Z,52.88
2023-01-20T20:44:48.792Z,55.10
2023-01-20T20:49:51.173Z,58.10
2023-01-20T20:54:56.210Z,39.85
2023-01-20T20:59:59.780Z,48.30
2023-01-20T21:05:07.689Z,54.25
2023-01-20T21:10:12.147Z,49.47
2023-01-20T21:15:14.593Z,55.53
2023-01-20T21:20:17.438Z,54.35
2023-01-20T21:25:24.131Z,56.97
2023-01-20T21:30:27.053Z,54.08
2023-01-20T21:35:29.491Z,39.97
2023-01-20T21:40:34.572Z,48.45
2023-01-20T21:45:37.066Z,44.47
2023-01-20T21:50:57.827Z,51.90
2023-01-20T21:56:01.261Z,47.88
2023-01-20T22:11:24.983Z,41.50
2023-01-20T22:16:37.967Z,48.35
2023-01-20T22:21:41.920Z,43.95
2023-01-20T22:26:59.175Z,44.90
2023-01-20T22:32:03.402Z,47.47
2023-01-20T22:37:05.820Z,47.50
2023-01-20T22:42:09.972Z,46.65
2023-01-20T22:47:12.537Z,45.40
2023-01-20T22:52:15.003Z,51.58
2023-01-20T22:57:21.035Z,48.72
2023-01-20T23:02:23.435Z,45.08
2023-01-20T23:07:26.005Z,50.60
2023-01-20T23:12:28.486Z,50.80
2023-01-20T23:17:45.666Z,61.77
2023-01-20T23:23:02.565Z,52.63
2023-01-20T23:28:05.689Z,52.20
2023-01-20T23:33:13.061Z,59.17
2023-01-20T23:38:43.597Z,59.78
2023-01-20T23:43:49.427Z,57.40
2023-01-20T23:54:25.086Z,51.45
2023-01-20T23:59:36.325Z,46.60
